createdAt,value
2017-08-23T00:00:00.474Z,943.5
2017-08-23T00:01:08.550Z,943.5
2017-08-23T00:02:16.831Z,943.5
2017-08-23T00:03:24.722Z,943.5
2017-08-23T00:04:32.808Z,943.5
2017-08-23T00:05:40.895Z,943.5
2017-08-23T00:06:48.985Z,943.5
2017-08-23T00:07:57.187Z,943.5
2017-08-23T00:09:05.156Z,943.5
2017-08-23T00:10:13.245Z,943.5
2017-08-23T00:11:21.537Z,943.5
2017-08-23T00:12:29.412Z,943.5
2017-08-23T00:13:37.552Z,943.5
2017-08-23T00:14:45.582Z,943.5
2017-08-23T00:15:53.679Z,943.5
2017-08-23T00:17:01.764Z,943.4
2017-08-23T00:18:09.851Z,943.4
2017-08-23T00:19:18.723Z,943.4
2017-08-23T00:20:26.022Z,943.4
2017-08-23T00:21:34.110Z,943.4
2017-08-23T00:22:42.194Z,943.4
2017-08-23T00:23:50.279Z,943.5
2017-08-23T00:24:58.424Z,943.4
2017-08-23T00:26:06.478Z,943.4
2017-08-23T00:27:14.660Z,943.4
2017-08-23T00:28:22.626Z,943.4
2017-08-23T00:29:30.721Z,943.4
2017-08-23T00:30:38.860Z,943.4
2017-08-23T00:31:46.884Z,943.3
2017-08-23T00:32:54.968Z,943.3
2017-08-23T00:34:03.054Z,943.3
2017-08-23T00:35:11.140Z,943.3
2017-08-23T00:36:19.286Z,943.3
2017-08-23T00:37:27.312Z,943.3
2017-08-23T00:38:35.403Z,943.3
2017-08-23T00:39:43.524Z,943.4
2017-08-23T00:40:51.572Z,943.3
2017-08-23T00:41:59.713Z,943.3
2017-08-23T00:43:07.799Z,943.3
2017-08-23T00:44:15.952Z,943.4
2017-08-23T00:45:23.989Z,943.4
2017-08-23T00:46:32.012Z,943.3
2017-08-23T00:47:40.246Z,943.3
2017-08-23T00:48:48.213Z,943.3
2017-08-23T00:49:56.302Z,943.3
2017-08-23T00:51:04.386Z,943.3
2017-08-23T00:52:12.472Z,943.3
2017-08-23T00:53:20.612Z,943.3
2017-08-23T00:54:28.653Z,943.3
2017-08-23T00:55:36.739Z,943.3
2017-08-23T00:56:44.835Z,943.3
2017-08-23T00:57:52.922Z,943.3
2017-08-23T00:59:01.126Z,943.3
2017-08-23T01:00:09.093Z,943.3
2017-08-23T01:01:17.180Z,943.3
2017-08-23T01:02:25.417Z,943.3
2017-08-23T01:03:33.351Z,943.3
2017-08-23T01:04:41.495Z,943.3
2017-08-23T01:05:49.526Z,943.3
2017-08-23T01:06:57.775Z,943.4
2017-08-23T01:08:05.696Z,943.4
2017-08-23T01:09:13.781Z,943.4
2017-08-23T01:10:21.989Z,943.4
2017-08-23T01:11:30.028Z,943.4
2017-08-23T01:12:38.050Z,943.4
2017-08-23T01:13:46.137Z,943.3
2017-08-23T01:14:54.283Z,943.3
2017-08-23T01:16:02.514Z,943.3
2017-08-23T01:17:10.469Z,943.3
2017-08-23T01:18:18.555Z,943.3
2017-08-23T01:19:26.638Z,943.3
2017-08-23T01:20:34.901Z,943.3
2017-08-23T01:21:42.866Z,943.2
2017-08-23T01:22:50.909Z,943.3
2017-08-23T01:23:58.999Z,943.3
2017-08-23T01:25:07.256Z,943.3
2017-08-23T01:26:15.255Z,943.2
2017-08-23T01:27:23.461Z,943.2
2017-08-23T01:28:31.428Z,943.2
2017-08-23T01:29:39.512Z,943.2
2017-08-23T01:30:47.657Z,943.2
2017-08-23T01:31:55.686Z,943.2
2017-08-23T01:33:03.829Z,943.2
2017-08-23T01:34:11.948Z,943.2
2017-08-23T01:35:19.948Z,943.1
2017-08-23T01:36:28.034Z,943.0
2017-08-23T01:37:36.118Z,943.0
2017-08-23T01:38:44.327Z,943.0
2017-08-23T01:39:52.292Z,943.1
2017-08-23T01:41:00.386Z,943.1
2017-08-23T01:42:08.465Z,943.2
2017-08-23T01:43:16.732Z,943.2
2017-08-23T01:44:24.692Z,943.1
2017-08-23T01:45:32.726Z,943.1
2017-08-23T01:46:40.871Z,943.1
2017-08-23T01:47:48.895Z,943.1
2017-08-23T01:48:56.981Z,943.1
2017-08-23T01:50:05.124Z,943.1
2017-08-23T01:51:13.153Z,943.1
2017-08-23T01:52:21.342Z,943.1
2017-08-23T01:53:29.329Z,943.2
2017-08-23T01:54:37.416Z,943.2
2017-08-23T01:55:45.634Z,943.2
2017-08-23T01:56:53.791Z,943.2
2017-08-23T01:58:01.719Z,943.2
2017-08-23T01:59:09.772Z,943.2
2017-08-23T02:00:17.859Z,943.2
2017-08-23T02:01:26.253Z,943.1
2017-08-23T02:02:34.084Z,943.1
2017-08-23T02:03:42.134Z,943.1
2017-08-23T02:04:50.210Z,943.1
2017-08-23T02:05:58.308Z,943.2
2017-08-23T02:07:06.545Z,943.2
2017-08-23T02:08:14.476Z,943.2
2017-08-23T02:09:22.564Z,943.2
2017-08-23T02:10:30.649Z,943.2
2017-08-23T02:11:38.736Z,943.2
2017-08-23T02:12:46.879Z,943.2
2017-08-23T02:13:54.915Z,943.2
2017-08-23T02:15:02.996Z,943.1
2017-08-23T02:16:11.081Z,943.1
2017-08-23T02:17:19.174Z,943.1
2017-08-23T02:18:27.374Z,943.1
2017-08-23T02:19:35.340Z,943.2
2017-08-23T02:20:43.432Z,943.1
2017-08-23T02:21:51.511Z,943.1
2017-08-23T02:22:59.597Z,943.1
2017-08-23T02:24:07.739Z,943.2
2017-08-23T02:25:15.769Z,943.1
2017-08-23T02:26:23.863Z,943.1
2017-08-23T02:27:31.949Z,943.1
2017-08-23T02:28:40.034Z,943.1
2017-08-23T02:29:48.181Z,943.1
2017-08-23T02:30:56.209Z,943.1
2017-08-23T02:32:04.290Z,943.1
2017-08-23T02:33:12.377Z,943.1
2017-08-23T02:34:20.689Z,943.1
2017-08-23T02:35:28.759Z,943.1
2017-08-23T02:36:36.635Z,943.1
2017-08-23T02:37:44.722Z,943.1
2017-08-23T02:38:52.816Z,943.1
2017-08-23T02:40:00.934Z,943.0
2017-08-23T02:41:09.079Z,943.0
2017-08-23T02:42:17.108Z,943.0
2017-08-23T02:43:25.345Z,943.0
2017-08-23T02:44:33.282Z,943.0
2017-08-23T02:45:41.367Z,943.0
2017-08-23T02:46:49.570Z,943.0
2017-08-23T02:47:57.594Z,943.0
2017-08-23T02:49:05.623Z,943.0
2017-08-23T02:50:13.777Z,943.0
2017-08-23T02:51:21.797Z,942.9
2017-08-23T02:52:30.027Z,942.9
2017-08-23T02:53:37.967Z,942.9
2017-08-23T02:54:46.060Z,942.8
2017-08-23T02:55:54.140Z,942.9
2017-08-23T02:57:02.378Z,942.9
2017-08-23T02:58:10.568Z,942.9
2017-08-23T02:59:18.399Z,942.9
2017-08-23T03:00:26.487Z,942.9
2017-08-23T03:01:34.724Z,942.8
2017-08-23T03:02:42.675Z,942.9
2017-08-23T03:03:50.815Z,942.9
2017-08-23T03:04:58.845Z,942.9
2017-08-23T03:06:07.011Z,942.8
2017-08-23T03:07:15.024Z,942.8
2017-08-23T03:08:23.105Z,942.8
2017-08-23T03:09:31.312Z,942.8
2017-08-23T03:10:39.441Z,942.8
2017-08-23T03:11:47.364Z,942.8
2017-08-23T03:12:55.450Z,942.8
2017-08-23T03:14:03.534Z,942.9
2017-08-23T03:15:11.687Z,942.9
2017-08-23T03:16:19.706Z,942.9
2017-08-23T03:17:27.794Z,942.9
2017-08-23T03:18:35.890Z,942.9
2017-08-23T03:19:43.973Z,942.8
2017-08-23T03:20:52.118Z,942.9
2017-08-23T03:22:00.273Z,942.8
2017-08-23T03:23:08.232Z,942.9
2017-08-23T03:24:16.318Z,942.9
2017-08-23T03:25:24.449Z,942.9
2017-08-23T03:26:32.679Z,942.9
2017-08-23T03:27:40.578Z,942.9
2017-08-23T03:28:48.664Z,942.9
2017-08-23T03:29:56.756Z,942.9
2017-08-23T03:31:04.834Z,942.9
2017-08-23T03:32:12.974Z,943.0
2017-08-23T03:33:21.068Z,942.9
2017-08-23T03:34:29.093Z,942.9
2017-08-23T03:35:37.177Z,942.9
2017-08-23T03:36:45.274Z,942.9
2017-08-23T03:37:53.495Z,943.0
2017-08-23T03:39:01.524Z,942.9
2017-08-23T03:40:09.530Z,942.9
2017-08-23T03:41:17.617Z,942.9
2017-08-23T03:42:25.704Z,942.9
2017-08-23T03:43:33.846Z,942.9
2017-08-23T03:44:41.876Z,942.9
2017-08-23T03:45:49.962Z,942.9
2017-08-23T03:46:58.111Z,942.9
2017-08-23T03:48:06.135Z,942.9
2017-08-23T03:49:14.403Z,942.9
2017-08-23T03:50:22.307Z,942.9
2017-08-23T03:51:30.393Z,942.9
2017-08-23T03:52:38.576Z,942.9
2017-08-23T03:53:46.622Z,942.9
2017-08-23T03:54:54.771Z,942.9
2017-08-23T03:56:02.737Z,942.9
2017-08-23T03:57:10.927Z,942.9
2017-08-23T03:58:18.966Z,943.0
2017-08-23T03:59:26.995Z,943.0
2017-08-23T04:00:35.139Z,942.9
2017-08-23T04:01:43.366Z,942.9
2017-08-23T04:02:51.257Z,942.9
2017-08-23T04:03:59.341Z,942.9
2017-08-23T04:05:07.430Z,942.9
2017-08-23T04:06:15.636Z,942.9
2017-08-23T04:07:23.641Z,942.9
2017-08-23T04:08:31.687Z,942.9
2017-08-23T04:09:39.828Z,942.9
2017-08-23T04:10:47.936Z,942.9
2017-08-23T04:11:56.125Z,942.9
2017-08-23T04:13:04.030Z,942.9
2017-08-23T04:14:12.124Z,942.9
2017-08-23T04:15:20.285Z,943.0
2017-08-23T04:16:28.294Z,943.0
2017-08-23T04:17:36.502Z,943.0
2017-08-23T04:18:44.468Z,943.0
2017-08-23T04:19:52.646Z,943.0
2017-08-23T04:21:00.640Z,943.0
2017-08-23T04:22:08.727Z,943.0
2017-08-23T04:23:16.869Z,943.0
2017-08-23T04:24:24.962Z,943.0
2017-08-23T04:25:33.044Z,943.1
2017-08-23T04:26:41.070Z,943.1
2017-08-23T04:27:49.155Z,943.0
2017-08-23T04:28:57.296Z,943.0
2017-08-23T04:30:05.420Z,943.1
2017-08-23T04:31:13.859Z,943.1
2017-08-23T04:32:21.501Z,943.1
2017-08-23T04:33:29.748Z,943.2
2017-08-23T04:34:37.730Z,943.2
2017-08-23T04:35:45.757Z,943.2
2017-08-23T04:36:53.843Z,943.2
2017-08-23T04:38:01.939Z,943.2
2017-08-23T04:39:10.052Z,943.2
2017-08-23T04:40:18.180Z,943.2
2017-08-23T04:41:26.262Z,943.1
2017-08-23T04:42:34.292Z,943.1
2017-08-23T04:43:42.474Z,943.2
2017-08-23T04:44:50.469Z,943.1
2017-08-23T04:45:58.605Z,943.1
2017-08-23T04:47:06.885Z,943.1
2017-08-23T04:48:15.494Z,943.1
2017-08-23T04:49:22.807Z,943.2
2017-08-23T04:50:30.898Z,943.1
2017-08-23T04:51:39.043Z,943.1
2017-08-23T04:52:47.074Z,943.1
2017-08-23T04:53:55.158Z,943.1
2017-08-23T04:55:03.245Z,943.1
2017-08-23T04:56:11.332Z,943.1
2017-08-23T04:57:19.475Z,943.1
2017-08-23T04:58:27.505Z,943.2
2017-08-23T04:59:35.596Z,943.1
2017-08-23T05:00:43.682Z,943.1
2017-08-23T05:01:51.767Z,943.1
2017-08-23T05:02:59.977Z,943.1
2017-08-23T05:04:07.941Z,943.1
2017-08-23T05:05:16.027Z,943.1
2017-08-23T05:06:24.114Z,943.1
2017-08-23T05:07:32.200Z,943.2
2017-08-23T05:08:40.339Z,943.1
2017-08-23T05:09:48.373Z,943.1
2017-08-23T05:10:56.456Z,943.2
2017-08-23T05:12:04.544Z,943.1
2017-08-23T05:13:12.684Z,943.1
2017-08-23T05:14:20.834Z,943.1
2017-08-23T05:15:28.968Z,943.2
2017-08-23T05:16:36.890Z,943.2
2017-08-23T05:17:44.977Z,943.2
2017-08-23T05:18:53.058Z,943.2
2017-08-23T05:20:01.199Z,943.2
2017-08-23T05:21:09.569Z,943.2
2017-08-23T05:22:17.317Z,943.2
2017-08-23T05:23:25.402Z,943.2
2017-08-23T05:24:33.490Z,943.2
2017-08-23T05:25:41.633Z,943.2
2017-08-23T05:26:49.661Z,943.1
2017-08-23T05:27:57.747Z,943.1
2017-08-23T05:29:05.962Z,943.2
2017-08-23T05:30:13.992Z,943.1
2017-08-23T05:31:22.060Z,943.1
2017-08-23T05:32:30.090Z,943.1
2017-08-23T05:33:38.175Z,943.1
2017-08-23T05:34:46.266Z,943.1
2017-08-23T05:35:54.354Z,943.1
2017-08-23T05:37:02.496Z,943.1
2017-08-23T05:38:10.527Z,943.1
2017-08-23T05:39:18.608Z,943.1
2017-08-23T05:40:26.696Z,943.1
2017-08-23T05:41:34.782Z,943.1
2017-08-23T05:42:42.923Z,943.1
2017-08-23T05:43:50.954Z,943.1
2017-08-23T05:44:59.160Z,943.1
2017-08-23T05:46:07.238Z,943.1
2017-08-23T05:47:15.446Z,943.1
2017-08-23T05:48:23.553Z,943.1
2017-08-23T05:49:31.498Z,943.2
2017-08-23T05:50:39.584Z,943.2
2017-08-23T05:51:47.839Z,943.1
2017-08-23T05:52:55.755Z,943.1
2017-08-23T05:54:03.894Z,943.1
2017-08-23T05:55:11.922Z,943.1
2017-08-23T05:56:20.069Z,943.1
2017-08-23T05:57:28.099Z,943.1
2017-08-23T05:58:36.182Z,943.1
2017-08-23T05:59:44.326Z,943.1
2017-08-23T06:00:52.474Z,943.1
2017-08-23T06:02:00.473Z,943.1
2017-08-23T06:03:08.562Z,943.1
2017-08-23T06:04:16.644Z,943.1
2017-08-23T06:05:24.786Z,943.1
2017-08-23T06:06:32.816Z,943.1
2017-08-23T06:07:40.903Z,943.1
2017-08-23T06:08:48.991Z,943.1
2017-08-23T06:09:57.079Z,943.1
2017-08-23T06:11:05.402Z,943.1
2017-08-23T06:12:13.247Z,943.1
2017-08-23T06:13:21.332Z,943.1
2017-08-23T06:14:29.416Z,943.1
2017-08-23T06:15:37.569Z,943.1
2017-08-23T06:16:45.713Z,943.1
2017-08-23T06:17:53.678Z,943.1
2017-08-23T06:19:01.908Z,943.1
2017-08-23T06:20:09.910Z,943.1
2017-08-23T06:21:17.935Z,943.1
2017-08-23T06:22:26.077Z,943.2
2017-08-23T06:23:34.105Z,943.1
2017-08-23T06:24:42.197Z,943.1
2017-08-23T06:25:50.280Z,943.1
2017-08-23T06:26:58.370Z,943.1
2017-08-23T06:28:06.525Z,943.1
2017-08-23T06:29:14.592Z,943.2
2017-08-23T06:30:22.631Z,943.1
2017-08-23T06:31:30.713Z,943.2
2017-08-23T06:32:38.855Z,943.1
2017-08-23T06:33:46.942Z,943.2
2017-08-23T06:34:54.971Z,943.1
2017-08-23T06:36:03.058Z,943.1
2017-08-23T06:37:11.146Z,943.2
2017-08-23T06:38:19.395Z,943.2
2017-08-23T06:39:27.436Z,943.2
2017-08-23T06:40:35.403Z,943.2
2017-08-23T06:41:43.492Z,943.2
2017-08-23T06:42:51.737Z,943.3
2017-08-23T06:43:59.668Z,943.2
2017-08-23T06:45:07.812Z,943.3
2017-08-23T06:46:15.847Z,943.3
2017-08-23T06:47:24.071Z,943.3
2017-08-23T06:48:32.092Z,943.3
2017-08-23T06:49:40.098Z,943.3
2017-08-23T06:50:48.304Z,943.3
2017-08-23T06:51:56.269Z,943.3
2017-08-23T06:53:04.356Z,943.3
2017-08-23T06:54:12.440Z,943.3
2017-08-23T06:55:20.528Z,943.3
2017-08-23T06:56:28.675Z,943.3
2017-08-23T06:57:36.700Z,943.3
2017-08-23T06:58:44.786Z,943.3
2017-08-23T06:59:52.872Z,943.3
2017-08-23T07:01:00.989Z,943.3
2017-08-23T07:02:09.104Z,943.3
2017-08-23T07:03:17.141Z,943.3
2017-08-23T07:04:25.282Z,943.3
2017-08-23T07:05:33.348Z,943.3
2017-08-23T07:06:41.412Z,943.3
2017-08-23T07:07:49.542Z,943.3
2017-08-23T07:08:57.567Z,943.3
2017-08-23T07:10:05.697Z,943.3
2017-08-23T07:11:13.742Z,943.3
2017-08-23T07:12:21.828Z,943.3
2017-08-23T07:13:29.971Z,943.3
2017-08-23T07:14:38.015Z,943.3
2017-08-23T07:15:46.093Z,943.3
2017-08-23T07:16:54.180Z,943.3
2017-08-23T07:18:02.286Z,943.3
2017-08-23T07:19:10.428Z,943.3
2017-08-23T07:20:18.512Z,943.3
2017-08-23T07:21:26.545Z,943.3
2017-08-23T07:22:34.631Z,943.3
2017-08-23T07:23:42.718Z,943.3
2017-08-23T07:24:50.915Z,943.3
2017-08-23T07:25:58.890Z,943.3
2017-08-23T07:27:06.977Z,943.4
2017-08-23T07:28:15.061Z,943.4
2017-08-23T07:29:23.147Z,943.4
2017-08-23T07:30:31.292Z,943.4
2017-08-23T07:31:39.317Z,943.4
2017-08-23T07:32:47.403Z,943.4
2017-08-23T07:33:55.490Z,943.4
2017-08-23T07:35:03.575Z,943.4
2017-08-23T07:36:11.720Z,943.4
2017-08-23T07:37:19.750Z,943.4
2017-08-23T07:38:27.881Z,943.4
2017-08-23T07:39:35.920Z,943.4
2017-08-23T07:40:44.022Z,943.4
2017-08-23T07:41:52.157Z,943.4
2017-08-23T07:43:00.197Z,943.4
2017-08-23T07:44:08.285Z,943.5
2017-08-23T07:45:16.372Z,943.5
2017-08-23T07:46:24.459Z,943.4
2017-08-23T07:47:32.733Z,943.5
2017-08-23T07:48:40.631Z,943.4
2017-08-23T07:49:48.716Z,943.5
2017-08-23T07:50:56.814Z,943.5
2017-08-23T07:52:05.019Z,943.4
2017-08-23T07:53:13.038Z,943.5
2017-08-23T07:54:21.071Z,943.5
2017-08-23T07:55:29.163Z,943.5
2017-08-23T07:56:37.374Z,943.5
2017-08-23T07:57:45.330Z,943.5
2017-08-23T07:58:53.473Z,943.5
2017-08-23T08:00:01.503Z,943.5
2017-08-23T08:01:09.593Z,943.5
2017-08-23T08:02:17.672Z,943.5
2017-08-23T08:03:25.755Z,943.5
2017-08-23T08:04:33.898Z,943.5
2017-08-23T08:05:41.929Z,943.5
2017-08-23T08:06:50.017Z,943.5
2017-08-23T08:07:58.158Z,943.5
2017-08-23T08:09:06.187Z,943.5
2017-08-23T08:10:14.329Z,943.5
2017-08-23T08:11:22.357Z,943.5
2017-08-23T08:12:30.490Z,943.5
2017-08-23T08:13:38.528Z,943.5
2017-08-23T08:14:46.806Z,943.5
2017-08-23T08:15:54.907Z,943.5
2017-08-23T08:17:02.787Z,943.6
2017-08-23T08:18:10.881Z,943.6
2017-08-23T08:19:18.959Z,943.6
2017-08-23T08:20:27.045Z,943.6
2017-08-23T08:21:35.188Z,943.6
2017-08-23T08:22:43.218Z,943.6
2017-08-23T08:23:51.357Z,943.6
2017-08-23T08:24:59.386Z,943.6
2017-08-23T08:26:07.475Z,943.6
2017-08-23T08:27:15.680Z,943.6
2017-08-23T08:28:23.647Z,943.6
2017-08-23T08:29:31.732Z,943.6
2017-08-23T08:30:39.817Z,943.6
2017-08-23T08:31:47.910Z,943.6
2017-08-23T08:32:56.045Z,943.6
2017-08-23T08:34:04.077Z,943.5
2017-08-23T08:35:12.162Z,943.5
2017-08-23T08:36:20.245Z,943.5
2017-08-23T08:37:28.339Z,943.5
2017-08-23T08:38:36.644Z,943.5
2017-08-23T08:39:44.569Z,943.5
2017-08-23T08:40:52.599Z,943.5
2017-08-23T08:42:00.684Z,943.4
2017-08-23T08:43:08.823Z,943.4
2017-08-23T08:44:16.977Z,943.4
2017-08-23T08:45:24.949Z,943.5
2017-08-23T08:46:33.036Z,943.4
2017-08-23T08:47:41.254Z,943.4
2017-08-23T08:48:49.209Z,943.4
2017-08-23T08:49:57.417Z,943.5
2017-08-23T08:51:05.382Z,943.4
2017-08-23T08:52:13.467Z,943.4
2017-08-23T08:53:21.554Z,943.5
2017-08-23T08:54:29.641Z,943.5
2017-08-23T08:55:37.785Z,943.4
2017-08-23T08:56:45.930Z,943.5
2017-08-23T08:57:53.901Z,943.4
2017-08-23T08:59:01.988Z,943.4
2017-08-23T09:00:10.073Z,943.4
2017-08-23T09:01:18.402Z,943.4
2017-08-23T09:02:26.254Z,943.4
2017-08-23T09:03:34.341Z,943.4
2017-08-23T09:04:42.433Z,943.4
2017-08-23T09:05:50.623Z,943.4
2017-08-23T09:06:58.750Z,943.4
2017-08-23T09:08:06.687Z,943.4
2017-08-23T09:09:14.788Z,943.4
2017-08-23T09:10:22.859Z,943.4
2017-08-23T09:11:31.001Z,943.4
2017-08-23T09:12:39.090Z,943.4
2017-08-23T09:13:47.126Z,943.4
2017-08-23T09:14:55.321Z,943.4
2017-08-23T09:16:03.298Z,943.4
2017-08-23T09:17:11.387Z,943.4
2017-08-23T09:18:19.530Z,943.4
2017-08-23T09:19:27.666Z,943.4
2017-08-23T09:20:35.645Z,943.3
2017-08-23T09:21:43.730Z,943.4
2017-08-23T09:22:51.825Z,943.4
2017-08-23T09:23:59.963Z,943.4
2017-08-23T09:25:07.990Z,943.4
2017-08-23T09:26:16.091Z,943.4
2017-08-23T09:27:24.229Z,943.4
2017-08-23T09:28:32.449Z,943.4
2017-08-23T09:29:40.445Z,943.4
2017-08-23T09:30:48.433Z,943.4
2017-08-23T09:31:56.585Z,943.4
2017-08-23T09:33:04.676Z,943.4
2017-08-23T09:34:12.915Z,943.4
2017-08-23T09:35:20.904Z,943.3
2017-08-23T09:36:28.934Z,943.3
2017-08-23T09:37:37.021Z,943.4
2017-08-23T09:38:45.109Z,943.4
2017-08-23T09:39:53.196Z,943.4
2017-08-23T09:41:01.350Z,943.4
2017-08-23T09:42:09.380Z,943.4
2017-08-23T09:43:17.520Z,943.4
2017-08-23T09:44:25.550Z,943.4
2017-08-23T09:45:33.636Z,943.4
2017-08-23T09:46:41.781Z,943.4
2017-08-23T09:47:49.809Z,943.3
2017-08-23T09:48:57.897Z,943.3
2017-08-23T09:50:05.996Z,943.3
2017-08-23T09:51:14.080Z,943.3
2017-08-23T09:52:22.214Z,943.3
2017-08-23T09:53:30.247Z,943.3
2017-08-23T09:54:38.334Z,943.4
2017-08-23T09:55:46.423Z,943.3
2017-08-23T09:56:54.510Z,943.3
2017-08-23T09:58:02.651Z,943.3
2017-08-23T09:59:10.803Z,943.4
2017-08-23T10:00:18.771Z,943.3
2017-08-23T10:01:26.856Z,943.4
2017-08-23T10:02:34.943Z,943.3
2017-08-23T10:03:43.085Z,943.3
2017-08-23T10:04:51.114Z,943.3
2017-08-23T10:05:59.201Z,943.3
2017-08-23T10:07:07.289Z,943.3
2017-08-23T10:08:15.376Z,943.3
2017-08-23T10:09:24.176Z,943.3
2017-08-23T10:10:32.204Z,943.3
2017-08-23T10:11:40.296Z,943.3
2017-08-23T10:12:48.426Z,943.2
2017-08-23T10:13:56.466Z,943.2
2017-08-23T10:15:04.609Z,943.2
2017-08-23T10:16:12.643Z,943.2
2017-08-23T10:17:20.738Z,943.2
2017-08-23T10:18:28.823Z,943.2
2017-08-23T10:19:36.913Z,943.2
2017-08-23T10:20:45.054Z,943.2
2017-08-23T10:21:53.087Z,943.1
2017-08-23T10:23:01.173Z,943.1
2017-08-23T10:24:09.258Z,943.1
2017-08-23T10:25:17.344Z,943.2
2017-08-23T10:26:25.498Z,943.1
2017-08-23T10:27:33.519Z,943.1
2017-08-23T10:28:41.603Z,943.1
2017-08-23T10:29:49.706Z,943.1
2017-08-23T10:30:57.849Z,943.1
2017-08-23T10:32:06.001Z,943.1
2017-08-23T10:33:13.966Z,943.1
2017-08-23T10:34:22.049Z,943.1
2017-08-23T10:35:30.139Z,943.1
2017-08-23T10:36:38.226Z,943.1
2017-08-23T10:37:46.390Z,943.1
2017-08-23T10:38:54.420Z,943.1
2017-08-23T10:40:02.508Z,943.1
2017-08-23T10:41:10.594Z,943.1
2017-08-23T10:42:18.681Z,943.1
2017-08-23T10:43:26.824Z,943.1
2017-08-23T10:44:34.856Z,943.1
2017-08-23T10:45:42.942Z,943.1
2017-08-23T10:46:51.158Z,943.1
2017-08-23T10:47:59.149Z,943.1
2017-08-23T10:49:07.341Z,943.1
2017-08-23T10:50:15.327Z,943.1
2017-08-23T10:51:23.417Z,943.1
2017-08-23T10:52:31.495Z,943.1
2017-08-23T10:53:39.611Z,943.1
2017-08-23T10:54:47.725Z,943.2
2017-08-23T10:55:55.755Z,943.2
2017-08-23T10:57:03.843Z,943.2
2017-08-23T10:58:11.932Z,943.2
2017-08-23T10:59:20.018Z,943.2
2017-08-23T11:00:28.164Z,943.2
2017-08-23T11:01:36.371Z,943.2
2017-08-23T11:02:44.492Z,943.2
2017-08-23T11:03:52.378Z,943.2
2017-08-23T11:05:00.453Z,943.2
2017-08-23T11:06:08.704Z,943.3
2017-08-23T11:07:16.734Z,943.2
2017-08-23T11:08:24.826Z,943.2
2017-08-23T11:09:32.915Z,943.2
2017-08-23T11:10:41.044Z,943.2
2017-08-23T11:11:49.151Z,943.2
2017-08-23T11:12:57.182Z,943.2
2017-08-23T11:14:05.268Z,943.2
2017-08-23T11:15:13.409Z,943.2
2017-08-23T11:16:21.443Z,943.2
2017-08-23T11:17:29.586Z,943.2
2017-08-23T11:18:37.738Z,943.2
2017-08-23T11:19:45.704Z,943.2
2017-08-23T11:20:53.870Z,943.2
2017-08-23T11:22:01.880Z,943.3
2017-08-23T11:23:10.025Z,943.2
2017-08-23T11:24:18.051Z,943.2
2017-08-23T11:25:26.141Z,943.2
2017-08-23T11:26:34.228Z,943.3
2017-08-23T11:27:42.314Z,943.2
2017-08-23T11:28:50.459Z,943.2
2017-08-23T11:29:58.565Z,943.2
2017-08-23T11:31:06.578Z,943.2
2017-08-23T11:32:14.665Z,943.2
2017-08-23T11:33:22.753Z,943.2
2017-08-23T11:34:31.116Z,943.1
2017-08-23T11:35:39.175Z,943.2
2017-08-23T11:36:47.014Z,943.2
2017-08-23T11:37:55.099Z,943.1
2017-08-23T11:39:04.763Z,943.2
2017-08-23T11:40:13.295Z,943.2
2017-08-23T11:41:19.361Z,943.2
2017-08-23T11:42:27.733Z,943.2
2017-08-23T11:43:36.007Z,943.2
2017-08-23T11:44:43.623Z,943.2
2017-08-23T11:45:51.763Z,943.1
2017-08-23T11:46:59.797Z,943.2
2017-08-23T11:48:07.889Z,943.2
2017-08-23T11:49:15.974Z,943.2
2017-08-23T11:50:24.119Z,943.2
2017-08-23T11:51:32.210Z,943.1
2017-08-23T11:52:40.237Z,943.1
2017-08-23T11:53:48.324Z,943.1
2017-08-23T11:54:56.419Z,943.1
2017-08-23T11:56:04.509Z,943.2
2017-08-23T11:57:12.667Z,943.1
2017-08-23T11:58:20.690Z,943.1
2017-08-23T11:59:28.778Z,943.1
2017-08-23T12:00:36.866Z,943.1
2017-08-23T12:01:45.085Z,943.1
2017-08-23T12:02:53.097Z,943.1
2017-08-23T12:04:01.124Z,943.1
2017-08-23T12:05:09.214Z,943.1
2017-08-23T12:06:17.356Z,943.1
2017-08-23T12:07:25.391Z,943.1
2017-08-23T12:08:33.616Z,943.0
2017-08-23T12:09:41.588Z,943.0
2017-08-23T12:10:49.810Z,943.0
2017-08-23T12:11:57.761Z,942.9
2017-08-23T12:13:05.850Z,943.0
2017-08-23T12:14:13.993Z,943.0
2017-08-23T12:15:22.026Z,943.0
2017-08-23T12:16:30.115Z,942.9
2017-08-23T12:17:38.202Z,942.9
2017-08-23T12:18:46.289Z,942.9
2017-08-23T12:19:54.564Z,942.9
2017-08-23T12:21:02.466Z,942.9
2017-08-23T12:22:10.677Z,942.9
2017-08-23T12:23:18.638Z,942.8
2017-08-23T12:24:26.825Z,942.9
2017-08-23T12:25:34.879Z,942.8
2017-08-23T12:26:42.901Z,942.8
2017-08-23T12:27:50.987Z,942.8
2017-08-23T12:28:59.076Z,942.9
2017-08-23T12:30:07.164Z,942.9
2017-08-23T12:31:15.310Z,942.8
2017-08-23T12:32:23.366Z,942.9
2017-08-23T12:33:31.520Z,942.9
2017-08-23T12:34:39.535Z,942.9
2017-08-23T12:35:47.623Z,942.9
2017-08-23T12:36:55.766Z,942.9
2017-08-23T12:38:03.991Z,942.9
2017-08-23T12:39:11.895Z,942.9
2017-08-23T12:40:19.985Z,942.9
2017-08-23T12:41:28.071Z,942.9
2017-08-23T12:42:36.374Z,942.9
2017-08-23T12:43:44.254Z,942.9
2017-08-23T12:44:52.550Z,942.9
2017-08-23T12:46:00.438Z,942.8
2017-08-23T12:47:08.675Z,942.9
2017-08-23T12:48:16.668Z,942.9
2017-08-23T12:49:24.700Z,942.9
2017-08-23T12:50:32.788Z,942.9
2017-08-23T12:51:40.874Z,942.9
2017-08-23T12:52:48.964Z,942.8
2017-08-23T12:53:57.171Z,942.9
2017-08-23T12:55:05.141Z,942.9
2017-08-23T12:56:13.224Z,942.9
2017-08-23T12:57:21.388Z,942.8
2017-08-23T12:58:29.422Z,942.8
2017-08-23T12:59:37.548Z,942.8
2017-08-23T13:00:45.591Z,942.8
2017-08-23T13:01:53.663Z,942.8
2017-08-23T13:03:01.750Z,942.8
2017-08-23T13:04:09.840Z,942.8
2017-08-23T13:05:18.232Z,942.8
2017-08-23T13:06:26.135Z,942.8
2017-08-23T13:07:34.223Z,942.8
2017-08-23T13:08:42.315Z,942.8
2017-08-23T13:09:50.635Z,942.8
2017-08-23T13:10:58.609Z,942.8
2017-08-23T13:12:06.574Z,942.8
2017-08-23T13:13:14.662Z,942.8
2017-08-23T13:14:22.754Z,942.8
2017-08-23T13:15:30.969Z,942.7
2017-08-23T13:16:38.991Z,942.7
2017-08-23T13:17:47.021Z,942.7
2017-08-23T13:18:55.259Z,942.7
2017-08-23T13:20:03.195Z,942.7
2017-08-23T13:21:11.282Z,942.7
2017-08-23T13:22:19.438Z,942.7
2017-08-23T13:23:27.580Z,942.7
2017-08-23T13:24:35.559Z,942.7
2017-08-23T13:25:43.700Z,942.7
2017-08-23T13:26:51.730Z,942.7
2017-08-23T13:28:00.000Z,942.7
2017-08-23T13:29:07.904Z,942.7
2017-08-23T13:30:15.994Z,942.7
2017-08-23T13:31:24.082Z,942.7
2017-08-23T13:32:32.171Z,942.7
2017-08-23T13:33:40.315Z,942.7
2017-08-23T13:34:48.346Z,942.7
2017-08-23T13:35:56.435Z,942.7
2017-08-23T13:37:04.532Z,942.7
2017-08-23T13:38:12.621Z,942.6
2017-08-23T13:39:20.764Z,942.6
2017-08-23T13:40:28.799Z,942.7
2017-08-23T13:41:37.193Z,942.7
2017-08-23T13:42:44.971Z,942.7
2017-08-23T13:43:53.059Z,942.7
2017-08-23T13:45:01.234Z,942.7
2017-08-23T13:46:09.300Z,942.6
2017-08-23T13:47:17.319Z,942.7
2017-08-23T13:48:25.407Z,942.7
2017-08-23T13:49:33.494Z,942.7
2017-08-23T13:50:41.803Z,942.7
2017-08-23T13:51:49.672Z,942.7
2017-08-23T13:52:57.832Z,942.7
2017-08-23T13:54:05.851Z,942.7
2017-08-23T13:55:13.993Z,942.7
2017-08-23T13:56:22.083Z,942.7
2017-08-23T13:57:30.171Z,942.7
2017-08-23T13:58:38.210Z,942.6
2017-08-23T13:59:46.299Z,942.6
2017-08-23T14:00:54.389Z,942.6
2017-08-23T14:02:02.684Z,942.6
2017-08-23T14:03:10.562Z,942.6
2017-08-23T14:04:18.782Z,942.6
2017-08-23T14:05:26.738Z,942.5
2017-08-23T14:06:34.827Z,942.6
2017-08-23T14:07:42.970Z,942.6
2017-08-23T14:08:51.002Z,942.6
2017-08-23T14:09:59.253Z,942.6
2017-08-23T14:11:07.177Z,942.6
2017-08-23T14:12:15.277Z,942.6
2017-08-23T14:13:23.484Z,942.6
2017-08-23T14:14:31.600Z,942.6
2017-08-23T14:15:39.630Z,942.6
2017-08-23T14:16:47.649Z,942.6
2017-08-23T14:17:55.737Z,942.6
2017-08-23T14:19:03.908Z,942.6
2017-08-23T14:20:11.915Z,942.6
2017-08-23T14:21:20.004Z,942.6
2017-08-23T14:22:28.092Z,942.5
2017-08-23T14:23:36.178Z,942.6
2017-08-23T14:24:44.391Z,942.5
2017-08-23T14:25:52.355Z,942.5
2017-08-23T14:27:00.443Z,942.5
2017-08-23T14:28:08.531Z,942.5
2017-08-23T14:29:16.676Z,942.5
2017-08-23T14:30:24.777Z,942.6
2017-08-23T14:31:32.796Z,942.5
2017-08-23T14:32:40.916Z,942.5
2017-08-23T14:33:48.969Z,942.5
2017-08-23T14:34:57.059Z,942.5
2017-08-23T14:36:05.204Z,942.5